Time;durP1;ratioP1;P1;durP2;ratioP2;P2;SDS_P1;SDS_P2;PMS_P1;PMS_P2;Temp;Humidity;BMP_temperature;BMP_pressure;BME280_temperature;BME280_humidity;BME280_pressure;Samples;Min_cycle;Max_cycle;Signal;HPM_P1;HPM_P2
2022/12/31 00:00:42;;;;;;;10.03;6.83;;;;;;;9.19;100.00;99740.63;7396924;19;20418;-58
2022/12/31 00:03:11;;;;;;;11.87;7.23;;;;;;;9.23;100.00;99745.88;7393633;19;20502;-53
2022/12/31 00:05:41;;;;;;;12.37;7.17;;;;;;;9.24;100.00;99757.94;7395921;19;20862;-56
2022/12/31 00:08:10;;;;;;;11.07;8.07;;;;;;;9.29;100.00;99764.97;7394984;19;20415;-52
2022/12/31 00:10:40;;;;;;;10.97;7.33;;;;;;;9.37;100.00;99764.31;7396719;19;20383;-55
2022/12/31 00:13:14;;;;;;;9.90;7.57;;;;;;;9.39;100.00;99772.97;7393595;19;20411;-51
2022/12/31 00:15:44;;;;;;;10.37;8.00;;;;;;;9.41;100.00;99784.19;7397003;19;20391;-56
2022/12/31 00:18:13;;;;;;;11.47;7.60;;;;;;;9.48;100.00;99786.13;7393910;19;20430;-55
2022/12/31 00:20:43;;;;;;;11.00;8.50;;;;;;;9.54;100.00;99786.31;7396437;19;20387;-55
2022/12/31 00:23:13;;;;;;;13.23;9.43;;;;;;;9.53;100.00;99800.00;7393436;19;21079;-51
2022/12/31 00:25:43;;;;;;;11.07;8.40;;;;;;;9.59;100.00;99787.31;7396071;19;20924;-57
2022/12/31 00:28:15;;;;;;;13.07;8.63;;;;;;;9.63;100.00;99803.75;7394335;19;20418;-57
2022/12/31 00:30:44;;;;;;;9.30;6.83;;;;;;;9.68;100.00;99806.44;7396135;19;20419;-55
2022/12/31 00:33:14;;;;;;;14.23;8.03;;;;;;;9.67;100.00;99810.75;7393208;19;21110;-55
2022/12/31 00:35:43;;;;;;;10.93;6.53;;;;;;;9.72;100.00;99813.47;7396403;19;20400;-57
2022/12/31 00:38:13;;;;;;;7.83;5.70;;;;;;;9.75;100.00;99818.72;7394366;19;20399;-55
2022/12/31 00:40:43;;;;;;;11.40;7.80;;;;;;;9.79;100.00;99830.84;7395965;19;20733;-55
2022/12/31 00:43:15;;;;;;;12.67;8.10;;;;;;;9.83;100.00;99842.09;7393529;19;20759;-53
2022/12/31 00:45:44;;;;;;;10.80;8.03;;;;;;;9.79;100.00;99830.84;7395439;19;20411;-51
2022/12/31 00:48:14;;;;;;;7.97;6.17;;;;;;;9.80;100.00;99837.72;7393710;19;21343;-55
2022/12/31 00:50:43;;;;;;;9.40;6.37;;;;;;;9.84;100.00;99847.31;7395241;19;20391;-52
2022/12/31 00:53:13;;;;;;;8.90;7.20;;;;;;;9.86;100.00;99853.38;7393566;19;20434;-52
2022/12/31 00:55:42;;;;;;;13.57;8.33;;;;;;;9.91;100.00;99844.91;7395797;19;20391;-56
2022/12/31 00:58:15;;;;;;;12.30;7.70;;;;;;;9.93;100.00;99843.25;7394541;19;20988;-56
2022/12/31 01:00:44;;;;;;;11.40;8.40;;;;;;;9.93;100.00;99851.88;7394464;19;20398;-54
2022/12/31 01:03:14;;;;;;;9.70;6.47;;;;;;;9.88;100.00;99856.00;7391442;19;20434;-54
2022/12/31 01:05:43;;;;;;;9.87;6.37;;;;;;;9.92;100.00;99856.97;7395079;19;20399;-57
2022/12/31 01:08:13;;;;;;;11.17;6.70;;;;;;;9.91;100.00;99860.38;7392860;19;20411;-53
2022/12/31 01:13:27;;;;;;;10.50;7.60;;;;;;;9.96;100.00;99869.97;7392892;19;20415;-55
2022/12/31 01:15:56;;;;;;;8.10;6.90;;;;;;;10.00;100.00;99869.25;7395182;19;20403;-57
2022/12/31 01:18:26;;;;;;;9.80;6.93;;;;;;;10.07;100.00;99872.91;7392769;19;20399;-52
2022/12/31 01:20:55;;;;;;;8.63;5.83;;;;;;;10.05;100.00;99879.69;7390608;19;20391;-53
2022/12/31 01:23:25;;;;;;;7.93;5.97;;;;;;;10.03;100.00;99881.38;7392104;19;20748;-53
2022/12/31 01:25:54;;;;;;;8.30;6.20;;;;;;;10.09;100.00;99890.97;7394146;19;20380;-53
2022/12/31 01:28:26;;;;;;;9.17;6.73;;;;;;;10.10;100.00;99891.03;7392475;19;20419;-52
2022/12/31 01:30:56;;;;;;;7.60;4.87;;;;;;;10.12;100.00;99880.78;7393873;19;20419;-55
2022/12/31 01:33:25;;;;;;;10.40;7.90;;;;;;;10.16;100.00;99887.78;7392087;19;20421;-53
2022/12/31 01:35:55;;;;;;;8.90;4.33;;;;;;;10.17;100.00;99891.22;7394639;19;20403;-55
2022/12/31 01:38:24;;;;;;;6.77;4.70;;;;;;;10.20;100.00;99883.59;7392308;19;20438;-51
2022/12/31 01:40:54;;;;;;;8.83;6.00;;;;;;;10.17;100.00;99886.06;7393767;19;20391;-53
2022/12/31 01:43:23;;;;;;;10.63;6.03;;;;;;;10.17;100.00;99893.78;7391410;19;20411;-53
2022/12/31 01:45:56;;;;;;;11.10;7.27;;;;;;;10.13;100.00;99885.97;7393559;19;20399;-51
2022/12/31 01:48:27;;;;;;;8.80;5.90;;;;;;;10.17;100.00;99878.31;7391976;19;20442;-54
2022/12/31 01:50:56;;;;;;;7.23;5.20;;;;;;;10.16;100.00;99876.56;7393266;19;20917;-54
2022/12/31 01:53:26;;;;;;;10.30;6.00;;;;;;;10.18;100.00;99874.91;7391774;19;20415;-55
2022/12/31 01:55:58;;;;;;;9.03;5.57;;;;;;;10.23;100.00;99863.03;7393522;19;20408;-52
2022/12/31 01:58:30;;;;;;;7.70;3.47;;;;;;;10.22;100.00;99866.44;7391273;19;20407;-53
2022/12/31 02:01:02;;;;;;;8.10;5.50;;;;;;;10.21;100.00;99857.81;7392430;19;20412;-56
2022/12/31 02:03:32;;;;;;;8.20;5.80;;;;;;;10.20;100.00;99855.22;7391319;19;20429;-55
2022/12/31 02:06:07;;;;;;;11.47;6.13;;;;;;;10.21;100.00;99850.09;7391674;19;20402;-54
2022/12/31 02:08:38;;;;;;;10.23;5.57;;;;;;;10.21;100.00;99849.22;7386725;19;21267;-56
2022/12/31 02:11:26;;;;;;;9.00;5.80;;;;;;;10.23;100.00;99842.41;7395850;19;20408;-53
2022/12/31 02:13:58;;;;;;;7.10;5.30;;;;;;;10.23;100.00;99834.66;7390440;19;20407;-51
2022/12/31 02:16:38;;;;;;;9.90;4.77;;;;;;;10.27;100.00;99833.94;7393135;19;20395;-57
2022/12/31 02:19:24;;;;;;;9.67;6.50;;;;;;;10.27;100.00;99841.69;7392090;19;20414;-57
2022/12/31 02:21:58;;;;;;;6.73;5.73;;;;;;;10.28;100.00;99830.53;7390438;19;20423;-57
2022/12/31 02:24:44;;;;;;;6.47;5.70;;;;;;;10.30;100.00;99822.84;7393038;19;20424;-53
2022/12/31 02:27:22;;;;;;;7.83;5.33;;;;;;;10.30;100.00;99822.84;7389774;19;20418;-52
2022/12/31 02:30:10;;;;;;;8.33;5.20;;;;;;;10.27;100.00;99824.47;7392072;19;20752;-56
2022/12/31 02:32:50;;;;;;;9.13;5.70;;;;;;;10.26;100.00;99816.72;7390120;19;20415;-57
2022/12/31 02:35:23;;;;;;;10.80;5.77;;;;;;;10.23;100.00;99820.09;7392797;19;21162;-56
2022/12/31 02:37:56;;;;;;;9.33;6.13;;;;;;;10.24;100.00;99798.63;7390346;19;20418;-55
2022/12/31 02:40:26;;;;;;;11.73;6.03;;;;;;;10.16;100.00;99791.50;7392302;19;20971;-56
2022/12/31 02:42:56;;;;;;;7.63;5.80;;;;;;;10.17;100.00;99780.38;7388828;19;20410;-57
2022/12/31 02:45:31;;;;;;;9.03;6.20;;;;;;;10.14;100.00;99776.00;7392315;19;20410;-53
2022/12/31 02:48:09;;;;;;;9.20;6.60;;;;;;;10.10;100.00;99762.16;7390889;19;20418;-56
2022/12/31 02:50:54;;;;;;;7.73;5.83;;;;;;;10.05;100.00;99747.41;7392299;19;20387;-56
2022/12/31 02:53:36;;;;;;;9.93;7.23;;;;;;;10.07;100.00;99738.88;7389240;19;20411;-50
2022/12/31 02:56:10;;;;;;;9.00;6.90;;;;;;;10.01;100.00;99736.13;7395516;19;20403;-57
2022/12/31 03:06:58;;;;;;;8.67;6.20;;;;;;;9.96;100.00;99712.81;7389072;19;20387;-53
2022/12/31 03:09:27;;;;;;;10.63;6.37;;;;;;;9.97;100.00;99705.94;7390989;19;20406;-57
2022/12/31 03:14:39;;;;;;;8.97;6.67;;;;;;;9.95;100.00;99697.31;7391454;19;20376;-57
2022/12/31 03:17:11;;;;;;;9.67;6.00;;;;;;;9.94;100.00;99695.59;7386505;19;20407;-54
2022/12/31 03:22:31;;;;;;;11.30;5.87;;;;;;;9.89;100.00;99692.00;7387050;19;20434;-51
2022/12/31 03:27:45;;;;;;;8.87;5.77;;;;;;;9.86;100.00;99682.47;7388536;19;20418;-55
2022/12/31 03:30:16;;;;;;;8.10;5.60;;;;;;;9.81;100.00;99694.34;7390289;19;20383;-56
2022/12/31 03:32:49;;;;;;;7.67;5.33;;;;;;;9.79;100.00;99691.72;7387856;19;20403;-56
2022/12/31 03:35:21;;;;;;;9.87;5.60;;;;;;;9.77;100.00;99698.56;7390919;19;21235;-55
2022/12/31 03:37:52;;;;;;;7.23;5.60;;;;;;;9.77;100.00;99690.81;7388500;19;20423;-57
2022/12/31 03:40:22;;;;;;;7.93;5.27;;;;;;;9.77;100.00;99687.34;7390186;19;20384;-57
2022/12/31 03:42:52;;;;;;;10.17;6.70;;;;;;;9.72;100.00;99694.97;7387389;19;20414;-55
2022/12/31 03:45:22;;;;;;;10.03;5.63;;;;;;;9.71;100.00;99693.22;7390588;19;20387;-57
2022/12/31 03:47:54;;;;;;;6.13;4.90;;;;;;;9.73;100.00;99696.72;7387707;19;20423;-56
2022/12/31 03:50:23;;;;;;;17.97;10.53;;;;;;;9.73;100.00;99704.44;7390221;19;21107;-56
2022/12/31 03:52:53;;;;;;;6.23;4.10;;;;;;;9.71;100.00;99701.81;7385821;19;20418;-55
2022/12/31 03:55:22;;;;;;;4.87;4.07;;;;;;;9.74;100.00;99701.03;7390477;19;20380;-56
2022/12/31 03:57:52;;;;;;;8.60;5.00;;;;;;;9.72;100.00;99700.13;7387563;19;20399;-54
2022/12/31 04:00:23;;;;;;;6.97;4.80;;;;;;;9.72;100.00;99702.69;7389179;19;20396;-56
2022/12/31 04:02:55;;;;;;;7.13;4.87;;;;;;;9.68;100.00;99709.47;7386494;19;20415;-58
2022/12/31 04:05:24;;;;;;;9.93;4.40;;;;;;;9.69;100.00;99697.47;7390371;19;20463;-58
2022/12/31 04:07:55;;;;;;;6.33;4.90;;;;;;;9.69;100.00;99705.19;7386500;19;20427;-54
2022/12/31 04:10:24;;;;;;;7.13;4.80;;;;;;;9.69;100.00;99700.03;7389522;19;20416;-57
2022/12/31 04:12:54;;;;;;;5.57;4.27;;;;;;;9.68;100.00;99709.47;7386563;19;20407;-56
2022/12/31 04:15:23;;;;;;;7.40;4.60;;;;;;;9.70;100.00;99706.94;7389814;19;20387;-53
2022/12/31 04:17:55;;;;;;;5.40;4.43;;;;;;;9.71;100.00;99708.69;7387363;19;20419;-55
2022/12/31 04:20:25;;;;;;;6.70;4.70;;;;;;;9.72;100.00;99710.41;7389381;19;20387;-58
2022/12/31 04:22:54;;;;;;;5.17;4.33;;;;;;;9.72;100.00;99720.72;7386552;19;20399;-56
2022/12/31 04:25:23;;;;;;;8.63;5.33;;;;;;;9.69;100.00;99718.94;7389615;19;20758;-55
2022/12/31 04:27:53;;;;;;;7.13;4.97;;;;;;;9.69;100.00;99720.66;7387760;19;20431;-58
2022/12/31 04:30:22;;;;;;;7.83;5.07;;;;;;;9.69;100.00;99721.50;7396069;19;20387;-57
2022/12/31 04:32:54;;;;;;;6.00;4.70;;;;;;;9.71;100.00;99714.69;7393581;19;20406;-51
2022/12/31 04:35:24;;;;;;;7.40;5.20;;;;;;;9.74;100.00;99713.91;7397055;19;20380;-58
2022/12/31 04:37:53;;;;;;;7.83;5.10;;;;;;;9.73;100.00;99712.16;7394254;19;20960;-56
2022/12/31 04:40:23;;;;;;;11.10;5.90;;;;;;;9.72;100.00;99720.72;7396077;19;20410;-55
2022/12/31 04:42:52;;;;;;;8.60;5.73;;;;;;;9.75;100.00;99696.75;7393550;19;20430;-51
2022/12/31 04:45:22;;;;;;;7.43;5.43;;;;;;;9.75;100.00;99684.75;7396947;19;20399;-53
2022/12/31 04:47:51;;;;;;;9.83;6.13;;;;;;;9.81;100.00;99668.59;7392602;19;20454;-55
2022/12/31 04:50:23;;;;;;;7.60;5.43;;;;;;;9.78;100.00;99666.81;7400034;19;21035;-56
2022/12/31 04:52:52;;;;;;;6.37;4.83;;;;;;;9.78;100.00;99658.19;7393047;19;20407;-57
2022/12/31 04:55:22;;;;;;;8.87;6.30;;;;;;;9.80;100.00;99641.94;7396093;19;20388;-55
2022/12/31 04:57:51;;;;;;;7.20;5.07;;;;;;;9.77;100.00;99649.59;7393797;19;20442;-56
2022/12/31 05:00:21;;;;;;;8.30;5.47;;;;;;;9.80;100.00;99651.41;7399863;19;20430;-55
2022/12/31 05:02:50;;;;;;;11.77;5.13;;;;;;;9.77;100.00;99672.78;7393104;19;20438;-58
2022/12/31 05:05:22;;;;;;;7.00;4.73;;;;;;;9.77;100.00;99677.94;7395817;19;20762;-57
2022/12/31 05:07:52;;;;;;;6.57;5.20;;;;;;;9.79;100.00;99681.41;7392748;19;20470;-55
2022/12/31 05:10:22;;;;;;;7.50;4.03;;;;;;;9.79;100.00;99681.41;7395062;19;20397;-58
2022/12/31 05:12:51;;;;;;;5.23;4.20;;;;;;;9.75;100.00;99700.22;7391860;19;20460;-56
2022/12/31 05:15:21;;;;;;;5.70;4.23;;;;;;;9.78;100.00;99720.91;7395655;19;20399;-58
2022/12/31 05:17:50;;;;;;;7.50;4.50;;;;;;;9.77;100.00;99728.56;7392701;19;21197;-58
2022/12/31 05:20:22;;;;;;;6.20;4.47;;;;;;;9.77;100.00;99732.03;7395811;19;20387;-54
2022/12/31 05:22:52;;;;;;;5.67;4.07;;;;;;;9.80;100.00;99726.97;7391616;19;20399;-54
2022/12/31 05:25:21;;;;;;;5.40;3.43;;;;;;;9.82;100.00;99732.16;7395220;19;20388;-58
2022/12/31 05:27:50;;;;;;;8.60;4.47;;;;;;;9.85;100.00;99737.41;7391817;19;20833;-58
2022/12/31 05:30:20;;;;;;;5.13;4.07;;;;;;;9.85;100.00;99738.28;7394345;19;20774;-57
2022/12/31 05:32:49;;;;;;;6.80;4.17;;;;;;;9.78;100.00;99749.25;7391399;19;20468;-56
2022/12/31 05:35:19;;;;;;;4.30;3.17;;;;;;;9.80;100.00;99744.13;7394892;19;20416;-57
2022/12/31 05:37:51;;;;;;;4.43;3.50;;;;;;;9.82;100.00;99748.50;7392765;19;20391;-55
2022/12/31 05:40:20;;;;;;;4.13;3.13;;;;;;;9.83;100.00;99765.72;7391746;19;20395;-55
2022/12/31 05:42:51;;;;;;;3.80;2.97;;;;;;;9.80;100.00;99767.31;7391326;19;20399;-53
2022/12/31 05:45:20;;;;;;;3.90;3.17;;;;;;;9.81;100.00;99781.94;7394727;19;20379;-55
2022/12/31 05:47:59;;;;;;;3.77;2.80;;;;;;;9.75;100.00;99792.94;7391742;19;20526;-58
2022/12/31 05:50:28;;;;;;;4.20;2.40;;;;;;;9.75;100.00;99795.53;7393973;19;20375;-55
2022/12/31 05:53:00;;;;;;;4.97;2.90;;;;;;;9.73;100.00;99823.81;7390427;19;20839;-58
2022/12/31 05:55:30;;;;;;;3.23;2.50;;;;;;;9.71;100.00;99837.47;7394101;19;20384;-55
2022/12/31 05:57:59;;;;;;;2.67;2.47;;;;;;;9.66;100.00;99832.19;7391337;19;20434;-57
2022/12/31 06:00:29;;;;;;;2.40;2.10;;;;;;;9.67;100.00;99840.78;7393161;19;20750;-59
2022/12/31 06:02:58;;;;;;;3.17;2.47;;;;;;;9.65;100.00;99845.88;7390353;19;20419;-58
2022/12/31 06:05:28;;;;;;;4.13;2.70;;;;;;;9.61;100.00;99856.91;7393790;19;20410;-59
2022/12/31 06:07:57;;;;;;;2.83;2.00;;;;;;;9.57;100.00;99862.78;7390633;19;20968;-57
2022/12/31 06:10:29;;;;;;;2.47;2.00;;;;;;;9.61;100.00;99864.66;7393225;19;20395;-54
2022/12/31 06:12:59;;;;;;;4.23;2.83;;;;;;;9.61;100.00;99867.22;7390082;19;20752;-59
2022/12/31 06:15:28;;;;;;;2.20;1.90;;;;;;;9.59;100.00;99869.75;7393316;19;20376;-56
2022/12/31 06:17:58;;;;;;;3.53;2.20;;;;;;;9.56;100.00;99873.91;7390647;19;20407;-56
2022/12/31 06:20:27;;;;;;;3.10;2.17;;;;;;;9.58;100.00;99888.59;7393000;19;20384;-57
2022/12/31 06:22:57;;;;;;;3.70;2.63;;;;;;;9.55;100.00;99896.22;7389940;19;20415;-58
2022/12/31 06:25:26;;;;;;;5.03;2.20;;;;;;;9.56;100.00;99897.09;7393226;19;21267;-57
2022/12/31 06:27:58;;;;;;;4.00;2.03;;;;;;;9.55;100.00;99897.94;7390319;19;20430;-58
2022/12/31 06:30:28;;;;;;;4.67;1.80;;;;;;;9.52;100.00;99893.56;7392423;19;20383;-54
2022/12/31 06:32:57;;;;;;;2.40;1.67;;;;;;;9.49;100.00;99896.00;7389632;19;20418;-59
2022/12/31 06:35:27;;;;;;;2.23;1.50;;;;;;;9.44;100.00;99916.47;7393017;19;20388;-58
2022/12/31 06:37:56;;;;;;;2.63;1.63;;;;;;;9.49;100.00;99902.88;7389982;19;20415;-58
2022/12/31 06:40:26;;;;;;;2.73;1.90;;;;;;;9.44;100.00;99908.75;7392075;19;20943;-57
2022/12/31 06:42:58;;;;;;;2.87;2.00;;;;;;;9.48;100.00;99896.84;7389442;19;21146;-59
2022/12/31 06:45:29;;;;;;;2.77;1.30;;;;;;;9.40;100.00;99898.31;7392785;19;20410;-57
2022/12/31 06:47:58;;;;;;;5.00;1.50;;;;;;;9.39;100.00;99899.13;7389777;19;20411;-57
2022/12/31 06:50:27;;;;;;;2.70;1.70;;;;;;;9.34;100.00;99901.56;7389571;19;20387;-55
2022/12/31 06:52:57;;;;;;;2.70;1.47;;;;;;;9.36;100.00;99899.00;7391379;19;20399;-58
2022/12/31 06:55:27;;;;;;;2.23;1.10;;;;;;;9.33;100.00;99892.06;7392190;19;20395;-58
2022/12/31 06:58:00;;;;;;;1.67;1.30;;;;;;;9.31;100.00;99889.47;7391256;19;20467;-58
2022/12/31 07:00:30;;;;;;;1.57;1.20;;;;;;;9.32;100.00;99874.88;7390964;19;20399;-58
2022/12/31 07:03:21;;;;;;;3.30;1.00;;;;;;;9.31;100.00;99894.59;7388858;19;20431;-57
2022/12/31 07:05:53;;;;;;;1.43;1.07;;;;;;;9.30;100.00;99889.41;7391620;19;20407;-59
2022/12/31 07:08:34;;;;;;;2.00;1.00;;;;;;;9.34;100.00;99877.50;7388738;19;20967;-56
2022/12/31 07:11:07;;;;;;;1.40;0.90;;;;;;;9.24;100.00;99882.38;7390900;19;20880;-56
2022/12/31 07:14:04;;;;;;;1.50;1.00;;;;;;;9.21;100.00;99892.53;7389593;19;20413;-59
2022/12/31 07:16:41;;;;;;;1.40;0.90;;;;;;;9.21;100.00;99892.53;7390479;19;20420;-54
2022/12/31 07:19:23;;;;;;;1.80;1.00;;;;;;;9.17;100.00;99908.69;7389853;19;20437;-58
2022/12/31 07:21:55;;;;;;;1.70;0.87;;;;;;;9.15;100.00;99928.38;7389232;19;20442;-57
2022/12/31 07:24:25;;;;;;;1.63;0.90;;;;;;;9.17;100.00;99924.13;7391174;19;20396;-55
2022/12/31 07:27:07;;;;;;;1.67;0.80;;;;;;;9.17;100.00;99926.72;7388821;19;20388;-58
2022/12/31 07:29:48;;;;;;;1.30;0.80;;;;;;;9.16;100.00;99924.97;7393454;19;20418;-59
2022/12/31 07:32:26;;;;;;;1.77;0.90;;;;;;;9.12;100.00;99933.44;7388029;19;20506;-56
2022/12/31 07:35:00;;;;;;;1.30;0.67;;;;;;;9.13;100.00;99942.88;7391067;19;20383;-57
2022/12/31 07:37:36;;;;;;;2.80;0.80;;;;;;;9.13;100.00;99948.91;7388118;19;20407;-56
2022/12/31 07:40:10;;;;;;;1.47;0.70;;;;;;;9.10;100.00;99942.75;7389947;19;20400;-53
2022/12/31 07:42:46;;;;;;;1.63;1.00;;;;;;;9.11;100.00;99958.28;7387554;19;20425;-55
2022/12/31 07:45:22;;;;;;;2.90;0.60;;;;;;;9.07;100.00;99953.81;7390460;19;20375;-56
2022/12/31 07:47:52;;;;;;;2.37;0.70;;;;;;;9.07;100.00;99951.25;7388399;19;20410;-57
2022/12/31 07:50:29;;;;;;;2.10;0.80;;;;;;;9.08;100.00;99936.69;7388578;19;20388;-56
2022/12/31 07:52:59;;;;;;;1.73;0.70;;;;;;;9.09;100.00;99941.03;7385626;19;20971;-56
2022/12/31 07:55:29;;;;;;;1.50;0.90;;;;;;;9.11;100.00;99921.34;7390689;19;20384;-57
2022/12/31 07:58:02;;;;;;;1.23;0.50;;;;;;;9.07;100.00;99916.94;7387193;19;20449;-57
2022/12/31 08:00:35;;;;;;;1.40;0.70;;;;;;;9.10;100.00;99920.50;7389496;19;20414;-56
2022/12/31 08:03:12;;;;;;;1.40;0.70;;;;;;;9.07;100.00;99909.22;7389478;19;20411;-53
2022/12/31 08:05:50;;;;;;;2.73;0.73;;;;;;;9.05;100.00;99922.91;7397862;19;20386;-59
2022/12/31 08:08:26;;;;;;;1.30;0.60;;;;;;;9.05;100.00;99927.19;7394837;19;20411;-56
2022/12/31 08:11:05;;;;;;;1.40;0.70;;;;;;;9.04;100.00;99936.56;7394428;19;20406;-56
2022/12/31 08:13:34;;;;;;;2.40;0.97;;;;;;;9.04;100.00;99928.84;7395051;19;20962;-55
2022/12/31 08:16:11;;;;;;;2.23;0.70;;;;;;;9.06;100.00;99931.50;7396801;19;20391;-57
2022/12/31 08:18:42;;;;;;;1.80;0.70;;;;;;;9.03;100.00;99919.41;7394824;19;20482;-57
2022/12/31 08:21:20;;;;;;;2.20;1.10;;;;;;;9.04;100.00;99921.13;7396496;19;20383;-57
2022/12/31 08:23:59;;;;;;;1.97;0.70;;;;;;;9.08;100.00;99916.13;7394377;19;20441;-54
2022/12/31 08:26:38;;;;;;;1.37;0.73;;;;;;;9.09;100.00;99929.03;7397249;19;20383;-58
2022/12/31 08:29:18;;;;;;;1.40;0.80;;;;;;;9.09;100.00;99939.34;7395270;19;20422;-53
2022/12/31 08:31:56;;;;;;;1.87;0.70;;;;;;;9.13;100.00;99945.47;7393861;19;20411;-57
2022/12/31 08:34:32;;;;;;;1.60;1.10;;;;;;;9.14;100.00;99945.50;7396761;19;20788;-59
2022/12/31 08:37:04;;;;;;;1.50;0.90;;;;;;;9.12;100.00;99948.88;7394669;19;20434;-57
2022/12/31 08:39:45;;;;;;;5.87;1.03;;;;;;;9.13;100.00;99958.34;7396049;19;20387;-55
2022/12/31 08:42:25;;;;;;;1.53;0.93;;;;;;;9.14;100.00;99962.66;7393224;19;20447;-55
2022/12/31 08:45:02;;;;;;;1.53;0.83;;;;;;;9.17;100.00;99960.16;7396459;19;20395;-55
2022/12/31 08:47:43;;;;;;;1.80;1.00;;;;;;;9.22;100.00;99957.78;7393205;19;20410;-58
2022/12/31 08:50:15;;;;;;;3.03;1.40;;;;;;;9.22;100.00;99965.50;7398231;19;20925;-59
2022/12/31 08:52:46;;;;;;;1.33;0.90;;;;;;;9.23;100.00;99952.66;7392651;19;20409;-58
2022/12/31 08:55:18;;;;;;;2.13;1.10;;;;;;;9.28;100.00;99945.97;7395974;19;20944;-59
2022/12/31 08:57:53;;;;;;;2.00;1.07;;;;;;;9.31;100.00;99934.91;7393363;19;20418;-57
2022/12/31 09:00:24;;;;;;;2.03;1.20;;;;;;;9.34;100.00;99914.44;7394672;19;20399;-56
2022/12/31 09:03:04;;;;;;;1.67;1.20;;;;;;;9.35;100.00;99935.88;7392172;19;20411;-59
2022/12/31 09:05:38;;;;;;;1.70;1.10;;;;;;;9.37;100.00;99931.66;7394320;19;20400;-59
2022/12/31 09:08:18;;;;;;;3.00;1.10;;;;;;;9.40;100.00;99934.34;7392538;19;20412;-56
2022/12/31 09:10:53;;;;;;;3.87;1.83;;;;;;;9.40;100.00;99942.06;7393529;19;20692;-58
2022/12/31 09:13:27;;;;;;;2.90;1.20;;;;;;;9.40;100.00;99945.53;7394069;19;20450;-59
2022/12/31 09:16:02;;;;;;;4.40;1.37;;;;;;;9.43;100.00;99939.59;7392019;19;20944;-59
2022/12/31 09:18:36;;;;;;;1.57;1.03;;;;;;;9.44;100.00;99942.22;7393188;19;20795;-56
2022/12/31 09:21:06;;;;;;;3.10;0.90;;;;;;;9.43;100.00;99934.44;7394298;19;20422;-58
2022/12/31 09:23:36;;;;;;;1.80;0.70;;;;;;;9.42;100.00;99932.69;7392441;19;20407;-56
2022/12/31 09:26:12;;;;;;;1.60;1.20;;;;;;;9.43;100.00;99937.91;7395540;19;20944;-58
2022/12/31 09:28:48;;;;;;;5.67;2.23;;;;;;;9.45;100.00;99948.25;7392397;19;20450;-60
2022/12/31 09:31:20;;;;;;;4.07;1.90;;;;;;;9.43;100.00;99955.03;7394825;19;20512;-61
2022/12/31 09:33:56;;;;;;;11.33;2.90;;;;;;;9.42;100.00;99949.03;7393970;19;20435;-58
2022/12/31 09:36:30;;;;;;;2.57;1.57;;;;;;;9.45;100.00;99966.28;7394777;19;20392;-59
2022/12/31 09:39:05;;;;;;;5.10;1.87;;;;;;;9.42;100.00;99949.03;7391066;19;20407;-59
2022/12/31 09:41:57;;;;;;;2.40;1.10;;;;;;;9.46;100.00;99955.16;7394488;19;20737;-60
2022/12/31 09:44:50;;;;;;;2.40;1.47;;;;;;;9.41;100.00;99960.16;7394489;19;20452;-57
2022/12/31 09:47:44;;;;;;;35.17;9.10;;;;;;;9.48;100.00;99958.63;7392055;19;20462;-57
2022/12/31 09:50:52;;;;;;;5.30;2.50;;;;;;;9.47;100.00;99962.03;7392883;19;20399;-59
2022/12/31 09:53:43;;;;;;;2.80;1.73;;;;;;;9.49;100.00;99952.66;7390230;19;20410;-58
2022/12/31 09:56:19;;;;;;;2.33;2.13;;;;;;;9.44;100.00;99949.94;7394132;19;20383;-57
2022/12/31 09:58:55;;;;;;;3.33;2.50;;;;;;;9.46;100.00;99942.28;7390433;19;20439;-58
2022/12/31 10:01:32;;;;;;;3.43;2.90;;;;;;;9.47;100.00;99925.13;7393036;19;20756;-54
2022/12/31 10:04:13;;;;;;;7.33;2.90;;;;;;;9.45;100.00;99928.50;7389962;19;20415;-59
2022/12/31 10:06:49;;;;;;;4.40;3.47;;;;;;;9.45;100.00;99922.50;7390929;19;20407;-54
2022/12/31 10:09:33;;;;;;;6.20;3.80;;;;;;;9.50;100.00;99910.66;7392555;19;20423;-57
2022/12/31 10:12:20;;;;;;;4.30;3.40;;;;;;;9.46;100.00;99901.06;7389108;19;20403;-55
2022/12/31 10:15:03;;;;;;;5.10;3.07;;;;;;;9.49;100.00;99898.59;7393349;19;20392;-57
2022/12/31 10:17:43;;;;;;;4.07;3.23;;;;;;;9.52;100.00;99892.66;7391517;19;20759;-59
2022/12/31 10:20:32;;;;;;;3.67;2.97;;;;;;;9.54;100.00;99880.72;7392632;19;20415;-53
2022/12/31 10:23:23;;;;;;;4.40;2.53;;;;;;;9.54;100.00;99884.16;7390027;19;20403;-52
2022/12/31 10:26:22;;;;;;;3.50;2.87;;;;;;;9.55;100.00;99883.34;7389961;19;20933;-56
2022/12/31 10:28:56;;;;;;;4.30;2.07;;;;;;;9.62;100.00;99883.53;7389000;19;20422;-59
2022/12/31 10:31:40;;;;;;;3.80;1.93;;;;;;;9.67;100.00;99871.69;7391929;19;20402;-58
2022/12/31 10:34:16;;;;;;;1.93;1.60;;;;;;;9.69;100.00;99870.03;7394635;19;20459;-56
2022/12/31 10:36:55;;;;;;;1.70;1.57;;;;;;;9.72;100.00;99855.56;7390697;19;20758;-56
2022/12/31 10:39:42;;;;;;;2.03;1.60;;;;;;;9.76;100.00;99853.94;7392079;19;20398;-58
2022/12/31 10:42:46;;;;;;;2.10;1.40;;;;;;;9.81;100.00;99842.09;7389752;19;20421;-59
2022/12/31 10:45:54;;;;;;;3.17;1.37;;;;;;;9.84;100.00;99824.13;7394896;19;20399;-56
2022/12/31 10:48:39;;;;;;;2.37;1.17;;;;;;;9.91;100.00;99820.03;7389516;19;20970;-55
2022/12/31 10:51:53;;;;;;;2.47;1.63;;;;;;;9.94;100.00;99834.72;7390920;19;20422;-56
2022/12/31 10:54:46;;;;;;;3.67;1.40;;;;;;;9.97;100.00;99832.22;7391762;19;20443;-57
2022/12/31 10:57:53;;;;;;;3.67;1.37;;;;;;;9.99;100.00;99840.84;7388974;19;20434;-56
2022/12/31 11:00:35;;;;;;;1.63;1.10;;;;;;;10.03;100.00;99826.34;7390953;19;20403;-58
2022/12/31 11:03:32;;;;;;;2.30;1.17;;;;;;;10.04;100.00;99821.25;7388009;19;20786;-56
2022/12/31 11:06:26;;;;;;;1.70;1.00;;;;;;;10.05;100.00;99832.44;7391371;19;20858;-55
2022/12/31 11:09:31;;;;;;;1.90;1.43;;;;;;;10.10;100.00;99815.44;7391545;19;20447;-58
2022/12/31 11:12:07;;;;;;;1.93;1.50;;;;;;;10.12;100.00;99824.91;7387026;19;20424;-56
2022/12/31 11:14:57;;;;;;;3.13;2.60;;;;;;;10.11;100.00;99822.31;7391626;19;20388;-56
2022/12/31 11:17:36;;;;;;;4.97;1.70;;;;;;;10.11;100.00;99823.19;7389334;19;20776;-57
2022/12/31 11:20:22;;;;;;;1.90;1.60;;;;;;;10.18;100.00;99820.78;7390386;19;20406;-56
2022/12/31 11:23:04;;;;;;;1.80;1.47;;;;;;;10.18;100.00;99821.66;7388198;19;20410;-59
2022/12/31 11:25:48;;;;;;;2.93;2.30;;;;;;;10.22;100.00;99818.34;7391361;19;20917;-59
2022/12/31 11:28:44;;;;;;;2.13;1.37;;;;;;;10.28;100.00;99820.22;7388669;19;20414;-55
2022/12/31 11:31:24;;;;;;;2.87;1.70;;;;;;;10.35;100.00;99809.22;7389864;19;20395;-59
2022/12/31 11:34:04;;;;;;;1.97;1.60;;;;;;;10.38;100.00;99816.19;7390010;19;20443;-57
2022/12/31 11:36:40;;;;;;;2.27;1.50;;;;;;;10.46;100.00;99816.44;7391933;19;20387;-56
2022/12/31 11:39:36;;;;;;;2.30;1.90;;;;;;;10.53;100.00;99832.09;7387972;19;20761;-57
2022/12/31 11:42:16;;;;;;;2.53;1.47;;;;;;;10.58;100.00;99839.97;7387611;19;20399;-58
2022/12/31 11:44:51;;;;;;;1.60;1.03;;;;;;;10.68;100.00;99841.09;7390795;19;20388;-58
2022/12/31 11:47:50;;;;;;;1.60;1.30;;;;;;;10.76;100.00;99833.53;7387982;19;20430;-57
2022/12/31 11:50:49;;;;;;;2.20;1.50;;;;;;;10.90;100.00;99829.63;7390040;19;20384;-59
2022/12/31 11:53:38;;;;;;;2.20;1.93;;;;;;;10.94;100.00;99839.19;7387245;19;20418;-56
2022/12/31 11:56:18;;;;;;;1.60;1.00;;;;;;;11.01;100.00;99841.91;7390143;19;20402;-54
2022/12/31 11:58:51;;;;;;;2.43;2.00;;;;;;;11.03;100.00;99851.44;7385781;19;20435;-57
2022/12/31 12:01:24;;;;;;;2.67;2.20;;;;;;;11.10;100.00;99855.06;7389460;19;20397;-57
2022/12/31 12:03:54;;;;;;;1.97;1.30;;;;;;;11.15;100.00;99853.47;7387631;19;20423;-54
2022/12/31 12:06:32;;;;;;;2.27;1.67;;;;;;;11.21;100.00;99868.25;7390080;19;20936;-59
2022/12/31 12:09:05;;;;;;;2.93;1.53;;;;;;;11.22;100.00;99869.97;7385568;19;20444;-59
2022/12/31 12:11:38;;;;;;;2.30;1.30;;;;;;;11.36;100.00;99870.34;7387993;19;20404;-57
2022/12/31 12:14:21;;;;;;;1.60;1.03;;;;;;;11.45;100.00;99873.13;7388634;19;20425;-55
2022/12/31 12:16:55;;;;;;;2.90;1.67;;;;;;;11.50;100.00;99881.00;7386050;19;20909;-56
2022/12/31 12:19:34;;;;;;;1.70;1.50;;;;;;;11.52;100.00;99901.69;7389234;19;20413;-59
2022/12/31 12:22:15;;;;;;;1.90;0.90;;;;;;;11.63;100.00;99915.75;7386775;19;20402;-54
2022/12/31 12:24:54;;;;;;;1.50;0.87;;;;;;;11.64;100.00;99961.41;7389115;19;20384;-58